< < Back
Terminal Aerodrome Forecast


Current Version              Previous Versions:   1  2  3  4  5  6  7  8  9  

Terminal Aerodrome Forecast

460
FTUS44 KOHX 010522
TAFCSV
TAF
KCSV 010522Z 0106/0206 35003KT P6SM SKC
     FM011700 36010KT P6SM FEW060
     FM020100 04002KT P6SM SKC=

Latest METAR

741
SAUS70 KWBC 011100 RRH
MTRCSV
METAR KCSV 011053Z AUTO 00000KT 10SM CLR 16/14 A3008 RMK AO2 SLP167
T01610139


USA.gov is the U.S. government's official web portal to all federal, state and local government web resources and services.